Time;durP1;ratioP1;P1;durP2;ratioP2;P2;SDS_P1;SDS_P2;PMS_P1;PMS_P2;Temp;Humidity;BMP_temperature;BMP_pressure;BME280_temperature;BME280_humidity;BME280_pressure;Samples;Min_cycle;Max_cycle;Signal;HPM_P1;HPM_P2
2023/01/27 00:02:04;;;;;;;11.87;7.37;;;1.80;99.90;;;;;;5113035;28;20264;-70
2023/01/27 00:04:30;;;;;;;10.30;6.97;;;1.90;99.90;;;;;;5113087;28;20532;-70
2023/01/27 00:06:55;;;;;;;9.10;6.23;;;1.90;99.90;;;;;;5112991;28;20202;-71
2023/01/27 00:09:21;;;;;;;9.80;6.13;;;1.80;99.90;;;;;;5112983;28;20591;-71
2023/01/27 00:14:31;;;;;;;9.00;6.23;;;2.00;99.90;;;;;;5114279;28;20160;-71
2023/01/27 00:16:57;;;;;;;11.97;6.93;;;2.10;99.90;;;;;;5112895;28;20176;-70
2023/01/27 00:19:23;;;;;;;9.37;6.07;;;2.10;99.90;;;;;;5112983;28;20201;-70
2023/01/27 00:24:36;;;;;;;8.57;6.17;;;2.10;99.90;;;;;;5115754;28;20176;-71
2023/01/27 00:27:02;;;;;;;10.30;7.30;;;2.20;99.90;;;;;;5112786;28;20230;-70
2023/01/27 00:29:28;;;;;;;9.87;6.87;;;2.20;99.90;;;;;;5112686;28;20171;-71
2023/01/27 00:34:40;;;;;;;7.63;5.17;;;2.20;99.90;;;;;;5117675;28;20185;-70
2023/01/27 00:37:06;;;;;;;7.73;5.47;;;2.20;99.90;;;;;;5112865;28;20641;-70
2023/01/27 00:39:32;;;;;;;7.27;5.13;;;2.20;99.90;;;;;;5112711;28;20165;-71
2023/01/27 00:41:58;;;;;;;5.50;4.87;;;2.20;99.90;;;;;;5112649;28;20180;-70
2023/01/27 00:44:23;;;;;;;5.80;4.10;;;2.10;99.90;;;;;;5116673;28;20235;-70
2023/01/27 00:46:50;;;;;;;5.20;4.50;;;2.10;99.90;;;;;;5116738;28;20678;-70
2023/01/27 00:49:17;;;;;;;5.43;4.67;;;2.10;99.90;;;;;;5098461;28;20191;-71
2023/01/27 00:51:43;;;;;;;6.53;4.53;;;2.10;99.90;;;;;;5116302;28;20178;-72
2023/01/27 00:54:09;;;;;;;4.90;4.00;;;2.00;99.90;;;;;;5114631;28;20657;-69
2023/01/27 00:56:35;;;;;;;4.17;3.77;;;2.00;99.90;;;;;;5116321;28;20282;-70
2023/01/27 00:59:01;;;;;;;4.80;3.43;;;1.90;99.90;;;;;;5116312;28;20255;-70
2023/01/27 01:01:27;;;;;;;5.40;3.90;;;2.00;99.90;;;;;;5116605;28;20272;-69
2023/01/27 01:03:53;;;;;;;3.83;3.50;;;2.10;99.90;;;;;;5097790;28;20173;-69
2023/01/27 01:06:19;;;;;;;6.40;4.13;;;2.10;99.90;;;;;;5116167;28;20183;-69
2023/01/27 01:08:45;;;;;;;4.50;3.50;;;2.20;99.90;;;;;;5116132;28;20267;-70
2023/01/27 01:11:13;;;;;;;3.80;3.20;;;2.20;99.90;;;;;;5116204;28;20203;-70
2023/01/27 01:13:40;;;;;;;6.20;4.00;;;2.20;99.90;;;;;;5116165;28;20195;-70
2023/01/27 01:16:14;;;;;;;6.03;4.50;;;2.20;99.90;;;;;;5116025;28;20173;-70
2023/01/27 01:18:40;;;;;;;4.53;4.10;;;2.40;99.90;;;;;;5116001;28;20164;-70
2023/01/27 01:21:07;;;;;;;6.87;5.00;;;2.30;99.90;;;;;;5116033;28;20191;-70
2023/01/27 01:23:36;;;;;;;8.20;5.07;;;2.30;99.90;;;;;;5115808;28;20607;-70
2023/01/27 01:26:02;;;;;;;6.43;5.23;;;2.30;99.90;;;;;;5116012;28;20170;-70
2023/01/27 01:28:27;;;;;;;9.03;5.23;;;2.30;99.90;;;;;;5115661;28;20260;-70
2023/01/27 01:30:54;;;;;;;6.67;4.90;;;2.30;99.90;;;;;;5115905;28;20604;-70
2023/01/27 01:33:20;;;;;;;5.53;4.53;;;2.30;99.90;;;;;;5115736;28;20187;-70
2023/01/27 01:35:46;;;;;;;5.63;4.37;;;2.30;99.90;;;;;;5115439;28;20173;-70
2023/01/27 01:38:12;;;;;;;6.27;4.43;;;2.30;99.90;;;;;;5115746;28;20166;-70
2023/01/27 01:40:43;;;;;;;4.90;3.93;;;2.30;99.90;;;;;;5115259;28;20497;-70
2023/01/27 01:43:15;;;;;;;4.10;3.77;;;2.30;99.90;;;;;;5115527;28;20566;-71
2023/01/27 01:45:52;;;;;;;4.00;3.50;;;2.30;99.90;;;;;;5113162;28;20181;-70
2023/01/27 01:48:26;;;;;;;3.37;3.07;;;2.30;99.90;;;;;;5115166;28;20194;-68
2023/01/27 01:51:00;;;;;;;3.27;3.00;;;2.30;99.90;;;;;;5097145;28;20544;-70
2023/01/27 01:53:36;;;;;;;4.17;3.30;;;2.30;99.90;;;;;;5115190;28;20206;-70
2023/01/27 01:56:14;;;;;;;3.83;2.97;;;2.30;99.90;;;;;;5115220;28;20526;-70
2023/01/27 01:58:42;;;;;;;3.40;3.10;;;2.40;99.90;;;;;;5115205;28;20519;-70
2023/01/27 02:01:08;;;;;;;4.77;3.43;;;2.30;99.90;;;;;;5115339;28;20170;-70
2023/01/27 02:03:38;;;;;;;5.47;4.20;;;2.30;99.90;;;;;;5115263;28;20170;-71
2023/01/27 02:06:04;;;;;;;5.00;3.87;;;2.30;99.90;;;;;;5116358;28;20533;-70
2023/01/27 02:08:35;;;;;;;6.50;4.40;;;2.30;99.90;;;;;;5117611;28;20204;-70
2023/01/27 02:11:01;;;;;;;6.00;4.47;;;2.30;99.90;;;;;;5121222;28;20174;-71
2023/01/27 02:13:27;;;;;;;4.83;4.00;;;2.30;99.90;;;;;;5115886;28;20172;-71
2023/01/27 02:15:54;;;;;;;6.27;4.27;;;2.30;99.90;;;;;;5096776;28;20527;-69
2023/01/27 02:18:21;;;;;;;6.17;4.20;;;2.30;99.90;;;;;;5114332;28;20180;-70
2023/01/27 02:20:50;;;;;;;4.07;3.67;;;2.30;99.90;;;;;;5115196;28;20207;-71
2023/01/27 02:23:29;;;;;;;6.20;4.63;;;2.20;99.90;;;;;;5115216;28;20205;-70
2023/01/27 02:26:19;;;;;;;5.63;4.50;;;2.30;99.90;;;;;;5116550;28;20171;-70
2023/01/27 02:28:53;;;;;;;4.53;3.97;;;2.20;99.90;;;;;;5115270;28;20206;-71
2023/01/27 02:31:19;;;;;;;6.13;4.40;;;2.20;99.90;;;;;;5114892;28;20664;-70
2023/01/27 02:33:45;;;;;;;6.23;4.97;;;2.20;99.90;;;;;;5114768;28;20176;-71
2023/01/27 02:36:16;;;;;;;6.20;5.00;;;2.20;99.90;;;;;;5114461;28;20211;-70
2023/01/27 02:38:52;;;;;;;4.80;4.40;;;2.20;99.90;;;;;;5114480;28;20244;-70
2023/01/27 02:41:43;;;;;;;7.30;5.43;;;2.20;99.90;;;;;;5114587;28;20180;-69
2023/01/27 02:44:10;;;;;;;5.27;4.63;;;2.20;99.90;;;;;;5095862;28;20234;-70
2023/01/27 02:46:36;;;;;;;6.87;4.90;;;2.10;99.90;;;;;;5113974;28;20254;-71
2023/01/27 02:49:03;;;;;;;5.93;5.03;;;2.10;99.90;;;;;;5114374;28;20168;-71
2023/01/27 02:51:29;;;;;;;7.00;5.57;;;2.10;99.90;;;;;;5114420;28;20176;-69
2023/01/27 02:53:55;;;;;;;6.97;5.43;;;2.20;99.90;;;;;;5114299;28;20248;-70
2023/01/27 02:56:21;;;;;;;7.03;5.37;;;2.20;99.90;;;;;;5114296;28;20263;-70
2023/01/27 02:58:47;;;;;;;6.33;5.20;;;2.20;99.90;;;;;;5114018;28;20233;-68
2023/01/27 03:01:12;;;;;;;9.27;5.80;;;2.10;99.90;;;;;;5114149;28;20169;-68
2023/01/27 03:03:42;;;;;;;8.00;5.50;;;2.00;99.90;;;;;;5114152;28;20528;-70
2023/01/27 03:06:09;;;;;;;8.30;6.63;;;2.00;99.90;;;;;;5113008;28;20178;-70
2023/01/27 03:08:35;;;;;;;6.97;5.80;;;2.00;99.90;;;;;;5113736;28;20555;-71
2023/01/27 03:11:01;;;;;;;8.33;5.93;;;1.90;99.90;;;;;;5113907;28;20252;-71
2023/01/27 03:13:27;;;;;;;9.77;6.50;;;2.00;99.90;;;;;;5113795;28;20218;-70
2023/01/27 03:18:38;;;;;;;9.50;6.63;;;2.10;99.90;;;;;;5114007;28;20196;-69
2023/01/27 03:21:05;;;;;;;8.83;6.30;;;2.10;99.90;;;;;;5113791;28;20640;-70
2023/01/27 03:23:35;;;;;;;8.87;6.53;;;2.10;99.90;;;;;;5113562;28;20628;-70
2023/01/27 03:26:05;;;;;;;11.27;7.17;;;2.10;99.90;;;;;;5113563;28;20585;-70
2023/01/27 03:28:31;;;;;;;9.07;6.40;;;2.10;99.90;;;;;;5111745;28;20208;-70
2023/01/27 03:31:05;;;;;;;9.63;6.50;;;2.10;99.90;;;;;;5112021;28;20252;-69
2023/01/27 03:33:31;;;;;;;9.37;6.57;;;2.10;99.90;;;;;;5113446;28;20177;-71
2023/01/27 03:46:57;;;;;;;9.17;6.40;;;2.00;99.90;;;;;;5113000;28;20570;-70
2023/01/27 03:49:22;;;;;;;11.10;6.77;;;2.00;99.90;;;;;;5112360;28;20199;-70
2023/01/27 03:51:48;;;;;;;9.77;6.97;;;2.00;99.90;;;;;;5089715;28;20180;-69
2023/01/27 03:54:14;;;;;;;13.63;7.93;;;2.00;99.90;;;;;;5113306;28;20622;-71
2023/01/27 03:56:40;;;;;;;11.23;6.97;;;2.00;99.90;;;;;;5094665;28;20183;-68
2023/01/27 03:59:06;;;;;;;9.13;6.50;;;2.00;99.90;;;;;;5117632;28;20222;-70
2023/01/27 04:01:31;;;;;;;12.40;7.57;;;1.90;99.90;;;;;;5116845;28;20543;-70
2023/01/27 04:06:59;;;;;;;9.53;6.67;;;1.90;99.90;;;;;;5111439;28;20210;-69
2023/01/27 04:09:34;;;;;;;10.23;6.77;;;2.00;99.90;;;;;;5113672;28;20183;-70
2023/01/27 04:12:03;;;;;;;8.63;6.53;;;2.00;99.90;;;;;;5112468;28;20163;-70
2023/01/27 04:14:42;;;;;;;9.50;6.90;;;2.00;99.90;;;;;;5112897;28;20179;-70
2023/01/27 04:17:14;;;;;;;8.03;6.43;;;2.00;99.90;;;;;;5111813;28;20599;-71
2023/01/27 04:19:40;;;;;;;9.73;6.87;;;2.00;99.90;;;;;;5112831;28;20693;-69
2023/01/27 04:22:07;;;;;;;9.70;6.67;;;1.90;99.90;;;;;;5115200;28;20271;-71
2023/01/27 04:24:33;;;;;;;11.70;7.50;;;2.00;99.90;;;;;;5112610;28;20184;-70
2023/01/27 04:27:07;;;;;;;9.70;6.60;;;1.90;99.90;;;;;;5112443;28;20677;-70
2023/01/27 04:29:35;;;;;;;10.37;7.57;;;1.90;99.90;;;;;;5111922;28;20166;-68
2023/01/27 04:32:03;;;;;;;11.07;7.60;;;2.00;99.90;;;;;;5112295;28;20221;-71
2023/01/27 04:34:29;;;;;;;11.47;7.37;;;2.00;99.90;;;;;;5111863;28;20173;-69
2023/01/27 04:36:55;;;;;;;9.10;6.50;;;2.00;99.90;;;;;;5112683;28;20608;-70
2023/01/27 04:39:21;;;;;;;11.70;7.67;;;2.00;99.90;;;;;;5112462;28;20233;-71
2023/01/27 04:41:48;;;;;;;8.97;6.80;;;1.90;99.90;;;;;;5112522;28;20176;-72
2023/01/27 04:44:14;;;;;;;12.23;8.03;;;2.00;99.90;;;;;;5112318;28;20250;-71
2023/01/27 04:46:41;;;;;;;11.40;7.10;;;1.90;99.90;;;;;;5112382;28;20542;-71
2023/01/27 04:49:10;;;;;;;9.17;7.10;;;2.00;99.90;;;;;;5112435;28;20640;-70
2023/01/27 04:51:35;;;;;;;11.70;7.43;;;2.00;99.90;;;;;;5112480;28;20215;-71
2023/01/27 04:54:02;;;;;;;11.93;7.77;;;1.90;99.90;;;;;;5094218;28;20226;-71
2023/01/27 04:56:31;;;;;;;10.50;7.30;;;1.90;99.90;;;;;;5112459;28;20185;-70
2023/01/27 04:58:59;;;;;;;9.20;7.33;;;1.90;99.90;;;;;;5112783;28;20177;-71
2023/01/27 05:01:25;;;;;;;9.83;6.97;;;1.90;99.90;;;;;;5112386;28;20174;-71
2023/01/27 05:03:51;;;;;;;9.13;6.97;;;1.90;99.90;;;;;;5112254;28;20637;-70
2023/01/27 05:06:16;;;;;;;9.53;7.27;;;1.90;99.90;;;;;;5112290;28;20175;-71
2023/01/27 05:08:42;;;;;;;12.00;8.10;;;1.90;99.90;;;;;;5112185;28;20218;-71
2023/01/27 05:11:09;;;;;;;11.27;7.50;;;1.90;99.90;;;;;;5112089;28;20182;-71
2023/01/27 05:13:35;;;;;;;11.80;8.07;;;1.90;99.90;;;;;;5112359;28;20172;-70
2023/01/27 05:16:16;;;;;;;11.90;7.97;;;1.90;99.90;;;;;;5112230;28;20172;-71
2023/01/27 05:18:43;;;;;;;11.33;7.70;;;2.00;99.90;;;;;;5112197;28;20160;-70
2023/01/27 05:21:14;;;;;;;11.13;7.27;;;1.90;99.90;;;;;;5112227;28;20180;-70
2023/01/27 05:23:40;;;;;;;9.97;6.73;;;1.90;99.90;;;;;;5112260;28;20611;-70
2023/01/27 05:26:06;;;;;;;9.57;6.77;;;1.90;99.90;;;;;;5112527;28;20182;-71
2023/01/27 05:28:33;;;;;;;10.43;6.87;;;1.90;99.90;;;;;;5112784;28;20928;-70
2023/01/27 05:31:04;;;;;;;9.47;7.43;;;1.80;99.90;;;;;;5115911;28;20165;-70
2023/01/27 05:33:30;;;;;;;9.60;7.07;;;1.80;99.90;;;;;;5097360;28;20188;-72
2023/01/27 05:36:03;;;;;;;9.63;7.03;;;1.90;99.90;;;;;;5115946;28;20248;-70
2023/01/27 05:38:30;;;;;;;9.60;7.07;;;1.80;99.90;;;;;;5116056;28;20173;-71
2023/01/27 05:40:57;;;;;;;10.23;7.30;;;1.80;99.90;;;;;;5115924;28;20198;-70
2023/01/27 05:43:24;;;;;;;10.03;7.13;;;1.80;99.90;;;;;;5115709;28;20231;-71
2023/01/27 05:45:50;;;;;;;13.40;7.20;;;1.80;99.90;;;;;;5116322;28;20172;-70
2023/01/27 05:48:16;;;;;;;10.87;6.93;;;1.80;99.90;;;;;;5117967;28;20204;-70
2023/01/27 05:50:42;;;;;;;10.37;7.33;;;1.90;99.90;;;;;;5115770;28;20174;-70
2023/01/27 05:53:08;;;;;;;10.87;7.77;;;2.00;99.90;;;;;;5115217;28;20188;-71
2023/01/27 05:55:34;;;;;;;12.77;7.80;;;1.90;99.90;;;;;;5115785;28;20184;-71
2023/01/27 05:57:59;;;;;;;8.77;6.97;;;1.90;99.90;;;;;;5115394;28;20634;-70
2023/01/27 06:00:25;;;;;;;10.23;7.23;;;2.00;99.90;;;;;;5115527;28;20174;-70
2023/01/27 06:02:51;;;;;;;9.53;7.00;;;2.00;99.90;;;;;;5115267;28;20174;-70
2023/01/27 06:05:17;;;;;;;9.40;6.80;;;2.00;99.90;;;;;;5115528;28;20679;-70
2023/01/27 06:07:42;;;;;;;10.10;7.27;;;2.00;99.90;;;;;;5115105;28;20201;-71
2023/01/27 06:10:09;;;;;;;11.50;6.97;;;1.90;99.90;;;;;;5115273;28;20991;-71
2023/01/27 06:12:35;;;;;;;9.47;6.60;;;1.90;99.90;;;;;;5115200;28;20270;-69
2023/01/27 06:15:01;;;;;;;10.13;7.30;;;1.90;99.90;;;;;;5117266;28;20201;-70
2023/01/27 06:17:27;;;;;;;10.57;7.80;;;1.90;99.90;;;;;;5115290;28;20256;-70
2023/01/27 06:19:53;;;;;;;10.17;6.70;;;1.90;99.90;;;;;;5115112;28;20252;-71
2023/01/27 06:22:18;;;;;;;10.43;7.23;;;1.90;99.90;;;;;;5114844;28;20257;-70
2023/01/27 06:24:44;;;;;;;10.07;7.13;;;1.90;99.90;;;;;;5115032;28;20185;-71
2023/01/27 06:27:10;;;;;;;10.63;6.90;;;1.80;99.90;;;;;;5096337;28;20211;-70
2023/01/27 06:29:36;;;;;;;11.40;7.27;;;1.90;99.90;;;;;;5115165;28;20195;-71
2023/01/27 06:32:02;;;;;;;10.10;6.63;;;1.90;99.90;;;;;;5114240;28;20657;-70
2023/01/27 06:34:28;;;;;;;7.47;5.73;;;1.90;99.90;;;;;;5114759;28;20185;-71
2023/01/27 06:36:53;;;;;;;8.90;6.83;;;1.90;99.90;;;;;;5114553;28;20180;-70
2023/01/27 06:39:19;;;;;;;10.43;7.23;;;1.90;99.90;;;;;;5114360;28;20193;-71
2023/01/27 06:41:45;;;;;;;9.03;6.87;;;2.00;99.90;;;;;;5113998;28;20189;-70
2023/01/27 06:44:11;;;;;;;11.33;7.30;;;2.00;99.90;;;;;;5114470;28;20331;-71
2023/01/27 06:46:36;;;;;;;10.63;6.53;;;1.90;99.90;;;;;;5114464;28;20179;-70
2023/01/27 06:49:02;;;;;;;11.30;7.17;;;1.90;99.90;;;;;;5114334;28;20260;-71
2023/01/27 06:51:28;;;;;;;8.70;6.20;;;1.80;99.90;;;;;;5114113;28;20166;-71
2023/01/27 06:53:54;;;;;;;10.50;7.13;;;1.90;99.90;;;;;;5114173;28;20187;-71
2023/01/27 06:56:19;;;;;;;9.67;6.90;;;1.90;99.90;;;;;;5114419;28;20519;-71
2023/01/27 06:58:45;;;;;;;11.57;7.30;;;2.00;99.90;;;;;;5095761;28;20178;-71
2023/01/27 07:01:11;;;;;;;9.57;7.20;;;2.00;99.90;;;;;;5114150;28;20177;-71
2023/01/27 07:03:37;;;;;;;9.10;6.83;;;2.00;99.90;;;;;;5114217;28;20187;-71
2023/01/27 07:06:03;;;;;;;11.50;7.43;;;2.00;99.90;;;;;;5114180;28;20181;-71
2023/01/27 07:08:29;;;;;;;9.97;6.83;;;2.00;99.90;;;;;;5113955;28;20208;-71
2023/01/27 07:10:55;;;;;;;12.47;7.60;;;2.00;99.90;;;;;;5114195;28;20630;-70
2023/01/27 07:13:20;;;;;;;9.03;6.93;;;2.00;99.90;;;;;;5113715;28;20228;-70
2023/01/27 07:15:47;;;;;;;10.93;7.27;;;2.00;99.90;;;;;;5095649;28;20180;-70
2023/01/27 07:18:13;;;;;;;11.43;7.67;;;2.00;99.90;;;;;;5113890;28;20225;-71
2023/01/27 07:20:40;;;;;;;12.07;7.63;;;2.00;99.90;;;;;;5113951;28;20573;-72
2023/01/27 07:23:06;;;;;;;10.90;7.40;;;2.00;99.90;;;;;;5095317;28;20536;-70
2023/01/27 07:25:33;;;;;;;11.23;8.07;;;2.00;99.90;;;;;;5113572;28;20181;-70
2023/01/27 07:28:00;;;;;;;14.80;8.33;;;2.00;99.90;;;;;;5113309;28;20308;-70
2023/01/27 07:30:27;;;;;;;12.37;8.60;;;1.90;99.90;;;;;;5113375;28;20181;-70
2023/01/27 07:32:54;;;;;;;13.47;8.40;;;2.00;99.90;;;;;;5113197;28;20187;-73
2023/01/27 07:35:20;;;;;;;12.10;8.63;;;2.00;99.90;;;;;;5096298;28;20206;-71
2023/01/27 07:37:46;;;;;;;12.47;8.17;;;1.90;99.90;;;;;;5113531;28;20616;-72
2023/01/27 07:40:12;;;;;;;15.47;8.77;;;2.00;99.90;;;;;;5107564;28;20195;-68
2023/01/27 07:42:39;;;;;;;13.37;9.13;;;2.00;99.90;;;;;;5080685;28;20225;-70
2023/01/27 07:45:05;;;;;;;15.97;8.80;;;2.00;99.90;;;;;;5091555;28;20231;-71
2023/01/27 07:47:31;;;;;;;14.67;9.03;;;2.00;99.90;;;;;;5089597;28;20222;-71
2023/01/27 07:49:57;;;;;;;14.30;8.40;;;2.10;99.90;;;;;;5084314;28;20186;-69
2023/01/27 07:52:22;;;;;;;11.50;8.30;;;2.10;99.90;;;;;;5082607;28;20183;-70
2023/01/27 07:54:48;;;;;;;13.17;8.43;;;2.10;99.90;;;;;;5083474;28;20177;-71
2023/01/27 07:57:14;;;;;;;12.50;8.40;;;2.20;99.90;;;;;;5085792;28;20180;-71
2023/01/27 07:59:40;;;;;;;12.13;7.60;;;2.20;99.90;;;;;;5092683;28;20202;-70
2023/01/27 08:02:06;;;;;;;11.00;7.33;;;2.20;99.90;;;;;;5088487;28;20169;-71
2023/01/27 08:04:31;;;;;;;13.77;8.77;;;2.20;99.90;;;;;;5083913;28;20197;-70
2023/01/27 08:06:57;;;;;;;15.60;7.80;;;2.20;99.90;;;;;;5088154;28;20204;-71
2023/01/27 08:09:23;;;;;;;12.90;8.23;;;2.20;99.90;;;;;;5091628;28;20188;-70
2023/01/27 08:11:48;;;;;;;11.10;7.07;;;2.40;99.90;;;;;;5091998;28;20178;-72
2023/01/27 08:14:14;;;;;;;10.50;7.07;;;2.50;99.90;;;;;;5092413;28;20217;-71
2023/01/27 08:16:40;;;;;;;10.23;7.57;;;2.60;99.90;;;;;;5092477;28;20218;-71
2023/01/27 08:19:06;;;;;;;11.30;7.93;;;2.50;99.90;;;;;;5090231;28;20173;-71
2023/01/27 08:21:32;;;;;;;11.27;8.00;;;2.50;99.90;;;;;;5092143;28;20169;-71
2023/01/27 08:23:59;;;;;;;14.50;9.13;;;2.60;99.90;;;;;;5092812;28;20182;-71
2023/01/27 08:26:25;;;;;;;12.73;8.30;;;2.70;99.90;;;;;;5092756;28;20249;-72
2023/01/27 08:28:51;;;;;;;12.03;7.80;;;2.80;99.90;;;;;;5092141;28;20289;-72
2023/01/27 08:31:17;;;;;;;11.57;7.90;;;2.70;99.90;;;;;;5092353;28;20590;-70
2023/01/27 08:33:48;;;;;;;12.97;9.07;;;2.80;99.90;;;;;;5092153;28;20170;-72
2023/01/27 08:36:17;;;;;;;11.67;7.80;;;2.80;99.90;;;;;;5092405;28;20192;-71
2023/01/27 08:38:43;;;;;;;11.63;8.00;;;2.90;99.90;;;;;;5092252;28;20159;-70
2023/01/27 08:41:15;;;;;;;10.27;7.40;;;2.90;99.90;;;;;;5092105;28;20168;-72
2023/01/27 08:43:41;;;;;;;11.53;8.63;;;2.90;99.90;;;;;;5104502;28;20216;-72
2023/01/27 08:46:08;;;;;;;11.07;8.20;;;2.90;99.90;;;;;;5113116;28;20531;-71
2023/01/27 08:48:35;;;;;;;10.80;7.83;;;2.90;99.90;;;;;;5112477;28;20690;-72
2023/01/27 08:51:02;;;;;;;10.70;7.53;;;2.80;99.90;;;;;;5113464;28;20533;-72
2023/01/27 08:53:29;;;;;;;12.53;8.33;;;2.80;99.90;;;;;;5112446;28;20177;-72
2023/01/27 08:55:57;;;;;;;9.60;7.00;;;2.70;99.90;;;;;;5112450;28;20181;-71
2023/01/27 08:58:24;;;;;;;11.10;7.57;;;2.70;99.90;;;;;;5112768;28;20177;-72
2023/01/27 09:00:50;;;;;;;10.87;8.03;;;2.70;99.90;;;;;;5112227;28;20189;-70
2023/01/27 09:03:16;;;;;;;9.43;6.63;;;2.80;99.90;;;;;;5112944;28;20182;-71
2023/01/27 09:05:42;;;;;;;11.83;7.30;;;2.80;99.90;;;;;;5116554;28;20585;-72
2023/01/27 09:08:09;;;;;;;10.73;7.23;;;2.70;99.90;;;;;;5116236;28;20213;-72
2023/01/27 09:10:39;;;;;;;8.90;6.47;;;2.80;99.90;;;;;;5116396;28;20174;-72
2023/01/27 09:13:06;;;;;;;9.47;6.70;;;2.70;99.90;;;;;;5116188;28;20502;-70
2023/01/27 09:15:34;;;;;;;9.67;6.60;;;2.60;99.90;;;;;;5116288;28;20189;-70
2023/01/27 09:18:00;;;;;;;8.77;6.20;;;2.50;99.90;;;;;;5116402;28;20177;-70
2023/01/27 09:20:26;;;;;;;8.60;6.47;;;2.50;99.90;;;;;;5116644;28;20166;-70
2023/01/27 09:22:54;;;;;;;8.20;6.67;;;2.50;99.90;;;;;;5116400;28;20172;-71
2023/01/27 09:25:21;;;;;;;8.67;5.60;;;2.50;99.90;;;;;;5116186;28;20169;-71
2023/01/27 09:27:46;;;;;;;7.17;5.53;;;2.40;99.90;;;;;;5115810;28;20213;-69
2023/01/27 09:30:14;;;;;;;7.60;5.47;;;2.40;99.90;;;;;;5116057;28;20505;-69
2023/01/27 09:32:41;;;;;;;6.97;5.80;;;2.40;99.90;;;;;;5116136;28;20162;-70
2023/01/27 09:35:07;;;;;;;8.10;5.83;;;2.40;99.90;;;;;;5115897;28;20180;-71
2023/01/27 09:37:40;;;;;;;8.03;5.73;;;2.30;99.90;;;;;;5115834;28;20498;-71
2023/01/27 09:40:17;;;;;;;6.30;5.63;;;2.40;99.90;;;;;;5115868;28;20620;-71
2023/01/27 09:42:51;;;;;;;6.30;5.37;;;2.40;99.90;;;;;;5115379;28;20221;-70
2023/01/27 09:45:36;;;;;;;9.80;5.30;;;2.40;99.90;;;;;;5115826;28;20509;-70
2023/01/27 09:48:08;;;;;;;7.90;5.73;;;2.40;99.90;;;;;;5097008;28;20199;-70
2023/01/27 09:50:47;;;;;;;6.93;5.63;;;2.40;99.90;;;;;;5115687;28;20179;-71
2023/01/27 09:53:50;;;;;;;6.77;5.03;;;2.40;99.90;;;;;;5115534;28;20532;-70
2023/01/27 09:56:41;;;;;;;5.73;4.90;;;2.50;99.90;;;;;;5115685;28;20159;-72
2023/01/27 09:59:15;;;;;;;5.17;4.67;;;2.40;99.90;;;;;;5122236;28;20162;-72
2023/01/27 10:02:03;;;;;;;8.00;5.77;;;2.40;99.90;;;;;;5117763;28;20169;-71
2023/01/27 10:04:50;;;;;;;7.30;6.47;;;2.50;99.90;;;;;;5115470;28;20239;-71
2023/01/27 10:07:44;;;;;;;6.60;5.57;;;2.50;99.90;;;;;;5115194;28;20661;-71
2023/01/27 10:10:37;;;;;;;6.40;5.00;;;2.40;99.90;;;;;;5115253;28;20360;-71
2023/01/27 10:13:21;;;;;;;7.17;5.60;;;2.60;99.90;;;;;;5114865;28;20619;-71
2023/01/27 10:16:04;;;;;;;6.77;5.50;;;2.90;99.90;;;;;;5115235;28;20188;-71
2023/01/27 10:18:36;;;;;;;5.77;4.93;;;3.00;99.90;;;;;;5096864;28;20161;-72
2023/01/27 10:21:34;;;;;;;6.67;5.83;;;3.10;99.90;;;;;;5114949;28;20177;-70
2023/01/27 10:24:09;;;;;;;5.67;5.17;;;3.20;99.90;;;;;;5115048;28;20208;-73
2023/01/27 10:26:45;;;;;;;8.13;5.37;;;3.30;99.90;;;;;;5115438;28;20167;-72
2023/01/27 10:29:57;;;;;;;6.77;5.53;;;3.40;99.90;;;;;;5096405;28;20196;-71
2023/01/27 10:32:45;;;;;;;8.23;5.57;;;3.60;99.90;;;;;;5109850;28;20193;-70
2023/01/27 10:35:20;;;;;;;6.13;5.13;;;3.70;99.90;;;;;;5114685;28;20161;-70
2023/01/27 10:38:02;;;;;;;7.27;5.70;;;3.70;99.90;;;;;;5114732;28;20166;-70
2023/01/27 10:40:51;;;;;;;5.63;5.13;;;3.70;99.90;;;;;;5096421;28;20187;-71
2023/01/27 10:43:23;;;;;;;5.63;5.07;;;3.70;99.90;;;;;;5114380;28;20245;-71
2023/01/27 10:46:02;;;;;;;8.17;5.50;;;3.70;99.90;;;;;;5114613;28;20628;-71
2023/01/27 10:48:43;;;;;;;7.47;5.80;;;3.70;99.90;;;;;;5114149;28;20306;-74
2023/01/27 10:51:32;;;;;;;7.40;5.03;;;3.70;99.90;;;;;;5096000;28;20641;-71
2023/01/27 10:54:05;;;;;;;7.47;5.33;;;3.80;99.90;;;;;;5114024;28;20222;-69
2023/01/27 10:56:49;;;;;;;7.00;5.80;;;3.80;99.90;;;;;;5114462;28;20160;-72
2023/01/27 10:59:18;;;;;;;8.63;5.37;;;3.90;99.90;;;;;;5114491;28;20161;-70
2023/01/27 11:01:55;;;;;;;5.90;5.30;;;4.00;99.90;;;;;;5114469;28;20173;-70
2023/01/27 11:04:30;;;;;;;5.43;4.93;;;4.10;99.90;;;;;;5114314;28;20238;-72
2023/01/27 11:06:57;;;;;;;7.30;6.27;;;4.20;99.90;;;;;;5095486;28;20591;-72
2023/01/27 11:09:32;;;;;;;6.87;5.27;;;4.20;99.90;;;;;;5114594;28;20192;-72
2023/01/27 11:12:05;;;;;;;7.53;5.77;;;4.20;99.90;;;;;;5114536;28;20173;-70
2023/01/27 11:14:45;;;;;;;8.07;5.80;;;4.10;99.90;;;;;;5113761;28;20158;-70
2023/01/27 11:17:35;;;;;;;6.67;5.70;;;4.10;99.90;;;;;;5113761;28;20162;-70
2023/01/27 11:20:16;;;;;;;8.37;5.90;;;4.10;99.90;;;;;;5113962;28;20186;-70
2023/01/27 11:22:42;;;;;;;8.10;6.10;;;4.10;99.90;;;;;;5113647;28;20161;-71
2023/01/27 11:25:31;;;;;;;6.70;5.50;;;4.10;99.90;;;;;;5113918;28;20180;-72
2023/01/27 11:28:03;;;;;;;7.27;5.70;;;4.10;99.90;;;;;;5114208;28;20200;-71
2023/01/27 11:31:02;;;;;;;7.07;5.73;;;4.10;99.90;;;;;;5113996;28;20181;-71
2023/01/27 11:33:57;;;;;;;8.77;5.90;;;4.10;99.90;;;;;;5055258;28;20184;-69
2023/01/27 11:36:26;;;;;;;6.67;5.90;;;4.00;99.90;;;;;;5095637;28;20623;-70
2023/01/27 11:38:54;;;;;;;8.23;6.47;;;4.00;99.90;;;;;;5113548;28;20174;-72
2023/01/27 11:41:20;;;;;;;7.37;6.13;;;3.90;99.90;;;;;;5095092;28;20178;-70
2023/01/27 11:43:46;;;;;;;10.20;6.40;;;4.00;99.90;;;;;;5113293;28;20221;-70
2023/01/27 11:46:16;;;;;;;6.47;5.83;;;4.00;99.90;;;;;;5113417;28;20205;-70
2023/01/27 11:48:47;;;;;;;7.37;6.00;;;4.00;99.90;;;;;;5113040;28;20292;-72
2023/01/27 11:51:39;;;;;;;8.90;5.93;;;4.00;99.90;;;;;;5114615;28;20189;-70
2023/01/27 11:54:19;;;;;;;9.20;6.63;;;4.00;99.90;;;;;;5114036;28;20636;-70
2023/01/27 11:56:47;;;;;;;7.63;6.67;;;4.00;99.90;;;;;;5113412;28;20181;-72
2023/01/27 11:59:25;;;;;;;8.50;6.17;;;4.20;99.90;;;;;;5113219;28;20660;-71
2023/01/27 12:02:05;;;;;;;7.07;6.27;;;4.20;99.90;;;;;;5112993;28;20553;-72
2023/01/27 12:04:37;;;;;;;11.73;6.87;;;4.20;99.90;;;;;;5112941;28;20173;-71
2023/01/27 12:07:11;;;;;;;9.07;7.03;;;4.20;99.90;;;;;;5112915;28;20197;-71
2023/01/27 12:09:41;;;;;;;8.47;6.40;;;4.20;99.90;;;;;;5113026;28;20154;-72
2023/01/27 12:12:12;;;;;;;9.30;6.63;;;4.20;99.90;;;;;;5112823;28;20174;-71
2023/01/27 12:14:51;;;;;;;9.57;7.17;;;4.20;99.90;;;;;;5112598;28;20170;-71
2023/01/27 12:17:27;;;;;;;9.50;6.63;;;4.20;99.90;;;;;;5095010;28;20158;-70
2023/01/27 12:19:57;;;;;;;8.07;6.80;;;4.20;99.90;;;;;;5112927;28;20214;-70
2023/01/27 12:22:36;;;;;;;9.17;7.00;;;4.20;99.90;;;;;;5112551;28;20161;-70
2023/01/27 12:25:23;;;;;;;8.50;6.20;;;4.20;99.90;;;;;;5112767;28;20201;-70
2023/01/27 12:27:58;;;;;;;7.53;6.70;;;4.20;99.90;;;;;;5112676;28;20521;-71
2023/01/27 12:30:28;;;;;;;11.17;6.77;;;4.20;99.90;;;;;;5094399;28;20251;-72
2023/01/27 12:32:55;;;;;;;8.77;6.67;;;4.20;99.90;;;;;;5095669;28;20577;-72
2023/01/27 12:35:32;;;;;;;8.30;6.40;;;4.10;99.90;;;;;;5112817;28;20172;-71
2023/01/27 12:38:10;;;;;;;8.73;6.37;;;4.10;99.90;;;;;;5112796;28;20742;-70
2023/01/27 12:40:41;;;;;;;8.90;6.40;;;4.00;99.90;;;;;;5117030;28;20625;-71
2023/01/27 12:43:14;;;;;;;9.00;6.70;;;3.90;99.90;;;;;;5116535;28;20247;-71
2023/01/27 12:45:42;;;;;;;7.93;6.53;;;3.80;99.90;;;;;;5098599;28;20181;-73
2023/01/27 12:48:15;;;;;;;8.90;7.00;;;3.90;99.90;;;;;;5098139;28;20251;-71
2023/01/27 12:51:25;;;;;;;9.87;7.13;;;4.00;99.90;;;;;;5116771;28;20170;-72
2023/01/27 12:54:20;;;;;;;9.90;7.03;;;4.10;99.90;;;;;;5074042;28;20589;-73
2023/01/27 12:56:51;;;;;;;8.27;6.57;;;4.10;99.90;;;;;;5117336;28;20164;-71
2023/01/27 12:59:20;;;;;;;9.60;6.83;;;4.00;99.90;;;;;;5117018;28;20693;-72
2023/01/27 13:02:19;;;;;;;9.53;6.53;;;3.90;99.90;;;;;;5116714;28;20185;-70
2023/01/27 13:04:53;;;;;;;9.73;6.67;;;3.90;99.90;;;;;;5108438;28;20185;-72
2023/01/27 13:07:24;;;;;;;8.03;5.90;;;3.80;99.90;;;;;;5116601;28;20205;-71
2023/01/27 13:09:52;;;;;;;6.17;5.57;;;3.70;99.90;;;;;;5117104;28;20166;-71
2023/01/27 13:12:27;;;;;;;7.60;6.63;;;3.70;99.90;;;;;;5116496;28;20504;-72
2023/01/27 13:14:56;;;;;;;11.77;6.80;;;3.70;99.90;;;;;;5097466;28;20222;-70
2023/01/27 13:17:40;;;;;;;9.50;7.13;;;3.60;99.90;;;;;;5097806;28;20206;-71
2023/01/27 13:20:23;;;;;;;9.10;6.87;;;3.50;99.90;;;;;;5116222;28;20529;-71
2023/01/27 13:23:18;;;;;;;7.63;6.03;;;3.50;99.90;;;;;;5115945;28;20181;-71
2023/01/27 13:25:48;;;;;;;7.70;6.57;;;3.60;99.90;;;;;;5105155;28;20702;-70
2023/01/27 13:28:20;;;;;;;14.03;6.90;;;3.60;99.90;;;;;;5116107;28;20577;-71
2023/01/27 13:30:53;;;;;;;8.00;6.30;;;3.50;99.90;;;;;;5116032;28;20246;-71
2023/01/27 13:33:28;;;;;;;8.17;6.13;;;3.50;99.90;;;;;;5115743;28;20165;-70
2023/01/27 13:36:32;;;;;;;10.53;7.43;;;3.50;99.90;;;;;;5097458;28;20578;-71